Portada
METAR-TAF:

METAR-TAF

Aeroports :

Amman-Queen Alia, Jordània

latitud: 31-40N, longitud: 035-58E, altitud: 721 m

Observació

L'informe es va fer fa 55 minuts, a les 06:00 UTC
Vent 2 kt del Est
Temperatura 17°C
Humitat 72%
Pressió 1023 hPa
Visibilitat: 5000 m
Núvols disperses a una alçada de 2500 ft
Núvols disperses a una alçada de 3000 ft
calitja

METAR: OJAI 200600Z 09002KT 5000 HZ SCT025 SCT030 17/12 Q1023 NOSIG

Hora: 09:55 (06:55 UTC)

Pronòstic

L'informe es va fer fa 2 hores i 13 minuts, a les 04:42 UTC
Pronòstic vàlid del 20 a les 06 UTC al 21 a les 12 UTC
Vent 12 kt del Oest/Nord-Oest
Visibilitat: 6000 m
Núvols disperses a una alçada de 3000 ft
Probabilitat 30% :
Temporalment
l' 21 a les 02 UTC al 21 a les 06 UTC
Visibilitat: 3000 m
boirina
Probabilitat 40%
l' 21 a les 06 UTC al 21 a les 18 UTC
Vent 8 kt del Est/Nord-Est
Visibilitat: 5000 m
calitja

TAF: OJAI 200442Z 2006/2112 29012KT 6000 SCT030 PROB30 TEMPO 2102/2106 3000 BR PROB40 2106/2118 06008KT 5000 HZ

Observacions i pronòstics meteorològics de més de 4000 aeroports (METAR i TAF).

Les estacions disponibles són els punts grocs i vermells al mapa.

Posi el ratolí al punt desitjat per veure el nom de l'estació.

Feu clic per veure les observacions i els pronòstics meteorològics.

Per canviar el mapa: feu clic els botons verds amb una creu de color negre per apropar; al botó verd amb un guió per allunyar la imatge; o en les fletxes verdes per a mapes adjacents.


METAR-TAF: